sensor_id;sensor_type;location;lat;lon;timestamp;P1;durP1;ratioP1;P2;durP2;ratioP2
37303;SDS011;23188;51.188;16.374;2022-10-04T00:01:05;10.23;;;3.15;;
37303;SDS011;23188;51.188;16.374;2022-10-04T00:05:11;9.00;;;2.98;;
37303;SDS011;23188;51.188;16.374;2022-10-04T00:09:20;11.88;;;3.58;;
37303;SDS011;23188;51.188;16.374;2022-10-04T00:13:23;10.08;;;3.10;;
37303;SDS011;23188;51.188;16.374;2022-10-04T00:17:28;6.97;;;2.35;;
37303;SDS011;23188;51.188;16.374;2022-10-04T00:25:58;6.87;;;4.17;;
37303;SDS011;23188;51.188;16.374;2022-10-04T00:38:25;12.60;;;4.33;;
37303;SDS011;23188;51.188;16.374;2022-10-04T00:42:43;5.67;;;3.15;;
37303;SDS011;23188;51.188;16.374;2022-10-04T00:46:51;8.78;;;4.67;;
37303;SDS011;23188;51.188;16.374;2022-10-04T00:50:57;5.07;;;4.07;;
37303;SDS011;23188;51.188;16.374;2022-10-04T00:55:17;6.75;;;3.62;;
37303;SDS011;23188;51.188;16.374;2022-10-04T00:59:39;9.85;;;3.47;;
37303;SDS011;23188;51.188;16.374;2022-10-04T01:03:44;6.65;;;4.12;;
37303;SDS011;23188;51.188;16.374;2022-10-04T01:07:50;8.13;;;4.45;;
37303;SDS011;23188;51.188;16.374;2022-10-04T01:12:03;6.55;;;3.95;;
37303;SDS011;23188;51.188;16.374;2022-10-04T01:16:12;12.80;;;5.47;;
37303;SDS011;23188;51.188;16.374;2022-10-04T01:20:29;8.90;;;6.42;;
37303;SDS011;23188;51.188;16.374;2022-10-04T01:24:34;7.70;;;4.37;;
37303;SDS011;23188;51.188;16.374;2022-10-04T01:28:38;14.47;;;5.17;;
37303;SDS011;23188;51.188;16.374;2022-10-04T01:32:42;3.95;;;2.52;;
37303;SDS011;23188;51.188;16.374;2022-10-04T01:36:44;4.90;;;2.83;;
37303;SDS011;23188;51.188;16.374;2022-10-04T01:40:50;12.30;;;4.25;;
37303;SDS011;23188;51.188;16.374;2022-10-04T01:44:56;7.47;;;2.77;;
37303;SDS011;23188;51.188;16.374;2022-10-04T01:49:11;5.97;;;2.55;;
37303;SDS011;23188;51.188;16.374;2022-10-04T01:53:21;7.42;;;2.35;;
37303;SDS011;23188;51.188;16.374;2022-10-04T01:57:36;6.80;;;2.87;;
37303;SDS011;23188;51.188;16.374;2022-10-04T02:01:45;4.47;;;2.67;;
37303;SDS011;23188;51.188;16.374;2022-10-04T02:05:59;12.55;;;4.85;;
37303;SDS011;23188;51.188;16.374;2022-10-04T02:10:05;8.83;;;6.90;;
37303;SDS011;23188;51.188;16.374;2022-10-04T02:14:10;5.87;;;2.98;;
37303;SDS011;23188;51.188;16.374;2022-10-04T02:18:16;5.12;;;3.47;;
37303;SDS011;23188;51.188;16.374;2022-10-04T02:22:20;5.78;;;3.50;;
37303;SDS011;23188;51.188;16.374;2022-10-04T02:26:25;7.90;;;2.90;;
37303;SDS011;23188;51.188;16.374;2022-10-04T02:30:26;13.50;;;4.00;;
37303;SDS011;23188;51.188;16.374;2022-10-04T02:34:28;7.80;;;3.85;;
37303;SDS011;23188;51.188;16.374;2022-10-04T02:38:32;7.83;;;3.67;;
37303;SDS011;23188;51.188;16.374;2022-10-04T02:51:37;6.90;;;5.03;;
37303;SDS011;23188;51.188;16.374;2022-10-04T02:55:39;5.45;;;4.42;;
37303;SDS011;23188;51.188;16.374;2022-10-04T02:59:42;8.08;;;4.40;;
37303;SDS011;23188;51.188;16.374;2022-10-04T03:03:44;9.25;;;4.75;;
37303;SDS011;23188;51.188;16.374;2022-10-04T03:07:47;8.95;;;4.03;;
37303;SDS011;23188;51.188;16.374;2022-10-04T03:11:51;7.72;;;2.60;;
37303;SDS011;23188;51.188;16.374;2022-10-04T03:15:53;8.50;;;3.00;;
37303;SDS011;23188;51.188;16.374;2022-10-04T03:19:54;9.75;;;1.87;;
37303;SDS011;23188;51.188;16.374;2022-10-04T03:23:57;8.70;;;2.65;;
37303;SDS011;23188;51.188;16.374;2022-10-04T03:28:00;3.90;;;2.80;;
37303;SDS011;23188;51.188;16.374;2022-10-04T03:32:02;3.25;;;2.12;;
37303;SDS011;23188;51.188;16.374;2022-10-04T03:36:05;5.92;;;2.22;;
37303;SDS011;23188;51.188;16.374;2022-10-04T03:40:08;2.62;;;1.60;;
37303;SDS011;23188;51.188;16.374;2022-10-04T03:44:16;3.70;;;1.82;;
37303;SDS011;23188;51.188;16.374;2022-10-04T03:48:24;7.87;;;1.70;;
37303;SDS011;23188;51.188;16.374;2022-10-04T03:52:36;2.62;;;1.40;;
37303;SDS011;23188;51.188;16.374;2022-10-04T03:56:41;5.25;;;2.00;;
37303;SDS011;23188;51.188;16.374;2022-10-04T04:00:43;3.22;;;1.75;;
37303;SDS011;23188;51.188;16.374;2022-10-04T04:05:02;3.37;;;1.82;;
37303;SDS011;23188;51.188;16.374;2022-10-04T04:09:04;4.85;;;1.40;;
37303;SDS011;23188;51.188;16.374;2022-10-04T04:17:40;4.25;;;2.10;;
37303;SDS011;23188;51.188;16.374;2022-10-04T04:21:46;5.25;;;1.80;;
37303;SDS011;23188;51.188;16.374;2022-10-04T04:25:49;3.75;;;2.02;;
37303;SDS011;23188;51.188;16.374;2022-10-04T04:29:56;8.05;;;2.70;;
37303;SDS011;23188;51.188;16.374;2022-10-04T04:46:27;4.37;;;2.65;;
37303;SDS011;23188;51.188;16.374;2022-10-04T04:54:36;2.50;;;2.00;;
37303;SDS011;23188;51.188;16.374;2022-10-04T04:58:40;3.15;;;1.82;;
37303;SDS011;23188;51.188;16.374;2022-10-04T05:02:50;2.52;;;1.75;;
37303;SDS011;23188;51.188;16.374;2022-10-04T05:07:04;6.10;;;1.95;;
37303;SDS011;23188;51.188;16.374;2022-10-04T05:11:11;8.38;;;2.77;;
37303;SDS011;23188;51.188;16.374;2022-10-04T05:15:15;9.10;;;2.72;;
37303;SDS011;23188;51.188;16.374;2022-10-04T05:19:18;4.05;;;1.65;;
37303;SDS011;23188;51.188;16.374;2022-10-04T05:23:32;8.60;;;2.77;;
37303;SDS011;23188;51.188;16.374;2022-10-04T05:27:35;6.78;;;3.58;;
37303;SDS011;23188;51.188;16.374;2022-10-04T05:36:28;8.50;;;3.17;;
37303;SDS011;23188;51.188;16.374;2022-10-04T05:45:01;6.03;;;2.70;;
37303;SDS011;23188;51.188;16.374;2022-10-04T05:49:24;13.25;;;3.12;;
37303;SDS011;23188;51.188;16.374;2022-10-04T05:53:31;9.13;;;2.25;;
37303;SDS011;23188;51.188;16.374;2022-10-04T06:02:45;3.40;;;1.87;;
37303;SDS011;23188;51.188;16.374;2022-10-04T06:25:02;4.85;;;2.77;;
37303;SDS011;23188;51.188;16.374;2022-10-04T06:29:05;9.15;;;3.42;;
37303;SDS011;23188;51.188;16.374;2022-10-04T06:42:08;10.65;;;2.52;;
37303;SDS011;23188;51.188;16.374;2022-10-04T06:46:39;6.20;;;2.12;;
37303;SDS011;23188;51.188;16.374;2022-10-04T06:59:41;8.33;;;2.93;;
37303;SDS011;23188;51.188;16.374;2022-10-04T07:04:23;6.75;;;3.40;;
37303;SDS011;23188;51.188;16.374;2022-10-04T07:08:47;8.60;;;2.77;;
37303;SDS011;23188;51.188;16.374;2022-10-04T07:17:14;5.30;;;3.10;;
37303;SDS011;23188;51.188;16.374;2022-10-04T07:21:22;9.40;;;3.42;;
37303;SDS011;23188;51.188;16.374;2022-10-04T07:25:41;6.25;;;3.17;;
37303;SDS011;23188;51.188;16.374;2022-10-04T07:29:53;8.73;;;3.57;;
37303;SDS011;23188;51.188;16.374;2022-10-04T07:34:01;6.25;;;2.62;;
37303;SDS011;23188;51.188;16.374;2022-10-04T07:38:15;10.70;;;3.70;;
37303;SDS011;23188;51.188;16.374;2022-10-04T07:42:24;9.23;;;3.37;;
37303;SDS011;23188;51.188;16.374;2022-10-04T07:51:18;4.33;;;3.22;;
37303;SDS011;23188;51.188;16.374;2022-10-04T08:00:00;8.20;;;3.30;;
37303;SDS011;23188;51.188;16.374;2022-10-04T08:08:44;15.08;;;3.25;;
37303;SDS011;23188;51.188;16.374;2022-10-04T08:17:56;9.75;;;2.70;;
37303;SDS011;23188;51.188;16.374;2022-10-04T08:22:46;5.42;;;2.85;;
37303;SDS011;23188;51.188;16.374;2022-10-04T08:35:54;3.92;;;1.90;;
37303;SDS011;23188;51.188;16.374;2022-10-04T08:40:22;4.92;;;2.75;;
37303;SDS011;23188;51.188;16.374;2022-10-04T09:12:13;3.67;;;2.27;;
37303;SDS011;23188;51.188;16.374;2022-10-04T09:25:20;7.03;;;1.67;;
37303;SDS011;23188;51.188;16.374;2022-10-04T10:01:57;11.88;;;2.08;;
37303;SDS011;23188;51.188;16.374;2022-10-04T10:15:28;1.52;;;1.27;;
37303;SDS011;23188;51.188;16.374;2022-10-04T10:24:07;4.33;;;2.17;;
37303;SDS011;23188;51.188;16.374;2022-10-04T10:41:42;2.58;;;1.75;;
37303;SDS011;23188;51.188;16.374;2022-10-04T11:04:16;5.20;;;1.77;;
37303;SDS011;23188;51.188;16.374;2022-10-04T11:08:51;6.35;;;1.30;;
37303;SDS011;23188;51.188;16.374;2022-10-04T11:31:37;3.75;;;1.05;;
37303;SDS011;23188;51.188;16.374;2022-10-04T12:06:51;2.62;;;1.22;;
37303;SDS011;23188;51.188;16.374;2022-10-04T12:16:08;3.75;;;2.17;;
37303;SDS011;23188;51.188;16.374;2022-10-04T12:20:40;2.52;;;1.82;;
37303;SDS011;23188;51.188;16.374;2022-10-04T12:34:32;2.80;;;1.42;;
37303;SDS011;23188;51.188;16.374;2022-10-04T12:43:23;3.55;;;1.70;;
37303;SDS011;23188;51.188;16.374;2022-10-04T12:52:15;6.37;;;2.30;;
37303;SDS011;23188;51.188;16.374;2022-10-04T12:56:28;2.85;;;1.67;;
37303;SDS011;23188;51.188;16.374;2022-10-04T13:01:16;3.85;;;1.72;;
37303;SDS011;23188;51.188;16.374;2022-10-04T13:05:28;3.27;;;1.32;;
37303;SDS011;23188;51.188;16.374;2022-10-04T13:18:57;3.47;;;1.30;;
37303;SDS011;23188;51.188;16.374;2022-10-04T13:23:20;3.17;;;1.57;;
37303;SDS011;23188;51.188;16.374;2022-10-04T13:36:27;6.83;;;2.67;;
37303;SDS011;23188;51.188;16.374;2022-10-04T13:41:11;6.72;;;2.72;;
37303;SDS011;23188;51.188;16.374;2022-10-04T13:50:07;4.37;;;2.40;;
37303;SDS011;23188;51.188;16.374;2022-10-04T13:54:20;5.70;;;2.90;;
37303;SDS011;23188;51.188;16.374;2022-10-04T13:58:57;4.37;;;2.15;;
37303;SDS011;23188;51.188;16.374;2022-10-04T14:12:27;3.00;;;1.60;;
37303;SDS011;23188;51.188;16.374;2022-10-04T14:16:51;19.25;;;3.40;;
37303;SDS011;23188;51.188;16.374;2022-10-04T14:30:21;4.30;;;0.80;;
37303;SDS011;23188;51.188;16.374;2022-10-04T15:06:24;4.67;;;1.70;;
37303;SDS011;23188;51.188;16.374;2022-10-04T15:10:56;4.47;;;1.52;;
37303;SDS011;23188;51.188;16.374;2022-10-04T15:19:28;11.83;;;2.00;;
37303;SDS011;23188;51.188;16.374;2022-10-04T15:23:33;5.05;;;1.80;;
37303;SDS011;23188;51.188;16.374;2022-10-04T15:27:46;3.85;;;1.25;;
37303;SDS011;23188;51.188;16.374;2022-10-04T15:31:55;6.55;;;1.72;;
37303;SDS011;23188;51.188;16.374;2022-10-04T15:49:14;5.03;;;1.55;;
37303;SDS011;23188;51.188;16.374;2022-10-04T16:07:36;3.30;;;2.43;;
37303;SDS011;23188;51.188;16.374;2022-10-04T16:11:58;7.92;;;1.35;;
37303;SDS011;23188;51.188;16.374;2022-10-04T16:24:51;4.45;;;2.35;;
37303;SDS011;23188;51.188;16.374;2022-10-04T16:33:21;8.58;;;3.92;;
37303;SDS011;23188;51.188;16.374;2022-10-04T16:42:03;8.18;;;4.25;;
37303;SDS011;23188;51.188;16.374;2022-10-04T17:03:45;9.83;;;5.08;;
37303;SDS011;23188;51.188;16.374;2022-10-04T17:08:07;5.45;;;3.42;;
37303;SDS011;23188;51.188;16.374;2022-10-04T17:12:28;4.17;;;3.25;;
37303;SDS011;23188;51.188;16.374;2022-10-04T17:16:54;6.78;;;3.77;;
37303;SDS011;23188;51.188;16.374;2022-10-04T17:21:05;5.28;;;4.05;;
37303;SDS011;23188;51.188;16.374;2022-10-04T17:30:11;12.73;;;7.65;;
37303;SDS011;23188;51.188;16.374;2022-10-04T17:34:20;10.65;;;8.48;;
37303;SDS011;23188;51.188;16.374;2022-10-04T17:43:19;26.02;;;14.90;;
37303;SDS011;23188;51.188;16.374;2022-10-04T17:47:35;16.97;;;13.13;;
37303;SDS011;23188;51.188;16.374;2022-10-04T17:52:26;13.90;;;9.85;;
37303;SDS011;23188;51.188;16.374;2022-10-04T17:57:07;12.25;;;8.35;;
37303;SDS011;23188;51.188;16.374;2022-10-04T18:01:11;14.20;;;7.90;;
37303;SDS011;23188;51.188;16.374;2022-10-04T18:05:33;11.45;;;7.25;;
37303;SDS011;23188;51.188;16.374;2022-10-04T18:09:57;10.55;;;6.37;;
37303;SDS011;23188;51.188;16.374;2022-10-04T18:14:07;12.58;;;7.70;;
37303;SDS011;23188;51.188;16.374;2022-10-04T18:18:38;10.35;;;5.25;;
37303;SDS011;23188;51.188;16.374;2022-10-04T18:22:45;10.98;;;5.40;;
37303;SDS011;23188;51.188;16.374;2022-10-04T18:26:59;9.50;;;5.87;;
37303;SDS011;23188;51.188;16.374;2022-10-04T18:35:37;13.78;;;6.67;;
37303;SDS011;23188;51.188;16.374;2022-10-04T18:39:54;9.60;;;6.97;;
37303;SDS011;23188;51.188;16.374;2022-10-04T18:44:16;10.30;;;6.33;;
37303;SDS011;23188;51.188;16.374;2022-10-04T18:48:16;8.55;;;6.70;;
37303;SDS011;23188;51.188;16.374;2022-10-04T19:06:09;11.38;;;7.87;;
37303;SDS011;23188;51.188;16.374;2022-10-04T19:19:26;10.10;;;8.78;;
37303;SDS011;23188;51.188;16.374;2022-10-04T19:28:31;36.48;;;11.83;;
37303;SDS011;23188;51.188;16.374;2022-10-04T19:37:10;18.85;;;9.70;;
37303;SDS011;23188;51.188;16.374;2022-10-04T19:54:30;13.90;;;10.18;;
37303;SDS011;23188;51.188;16.374;2022-10-04T19:58:36;8.80;;;7.87;;
37303;SDS011;23188;51.188;16.374;2022-10-04T20:02:46;13.13;;;8.98;;
37303;SDS011;23188;51.188;16.374;2022-10-04T20:06:55;14.33;;;8.30;;
37303;SDS011;23188;51.188;16.374;2022-10-04T20:11:11;12.75;;;8.03;;
37303;SDS011;23188;51.188;16.374;2022-10-04T20:19:39;14.85;;;8.23;;
37303;SDS011;23188;51.188;16.374;2022-10-04T20:31:55;24.02;;;13.00;;
37303;SDS011;23188;51.188;16.374;2022-10-04T20:35:58;10.50;;;8.10;;
37303;SDS011;23188;51.188;16.374;2022-10-04T20:40:09;14.40;;;8.23;;
37303;SDS011;23188;51.188;16.374;2022-10-04T20:44:46;9.48;;;6.30;;
37303;SDS011;23188;51.188;16.374;2022-10-04T20:48:52;8.15;;;5.55;;
37303;SDS011;23188;51.188;16.374;2022-10-04T20:52:55;14.47;;;7.50;;
37303;SDS011;23188;51.188;16.374;2022-10-04T20:57:01;12.90;;;6.97;;
37303;SDS011;23188;51.188;16.374;2022-10-04T21:05:37;10.95;;;7.95;;
37303;SDS011;23188;51.188;16.374;2022-10-04T21:09:39;17.45;;;11.35;;
37303;SDS011;23188;51.188;16.374;2022-10-04T21:18:00;16.95;;;10.03;;
37303;SDS011;23188;51.188;16.374;2022-10-04T21:22:07;21.48;;;8.73;;
37303;SDS011;23188;51.188;16.374;2022-10-04T21:30:24;22.35;;;12.40;;
37303;SDS011;23188;51.188;16.374;2022-10-04T21:34:25;13.65;;;9.68;;
37303;SDS011;23188;51.188;16.374;2022-10-04T21:38:27;16.67;;;9.18;;
37303;SDS011;23188;51.188;16.374;2022-10-04T21:42:28;21.60;;;12.85;;
37303;SDS011;23188;51.188;16.374;2022-10-04T21:46:29;30.37;;;15.32;;
37303;SDS011;23188;51.188;16.374;2022-10-04T21:50:30;29.90;;;16.93;;
37303;SDS011;23188;51.188;16.374;2022-10-04T21:54:31;42.15;;;24.15;;
37303;SDS011;23188;51.188;16.374;2022-10-04T21:58:33;49.48;;;27.80;;
37303;SDS011;23188;51.188;16.374;2022-10-04T22:02:34;38.25;;;21.73;;
37303;SDS011;23188;51.188;16.374;2022-10-04T22:06:36;34.65;;;20.88;;
37303;SDS011;23188;51.188;16.374;2022-10-04T22:10:37;39.98;;;21.17;;
37303;SDS011;23188;51.188;16.374;2022-10-04T22:14:39;30.60;;;17.37;;
37303;SDS011;23188;51.188;16.374;2022-10-04T22:18:41;30.20;;;16.17;;
37303;SDS011;23188;51.188;16.374;2022-10-04T22:22:42;27.87;;;13.88;;
37303;SDS011;23188;51.188;16.374;2022-10-04T22:26:43;17.62;;;11.55;;
37303;SDS011;23188;51.188;16.374;2022-10-04T22:30:44;13.88;;;9.65;;
37303;SDS011;23188;51.188;16.374;2022-10-04T22:34:46;11.15;;;7.55;;
37303;SDS011;23188;51.188;16.374;2022-10-04T22:38:55;13.13;;;7.42;;
37303;SDS011;23188;51.188;16.374;2022-10-04T22:43:00;9.73;;;7.65;;
37303;SDS011;23188;51.188;16.374;2022-10-04T22:47:04;10.55;;;7.20;;
37303;SDS011;23188;51.188;16.374;2022-10-04T22:51:12;7.05;;;6.35;;
37303;SDS011;23188;51.188;16.374;2022-10-04T22:55:15;12.20;;;7.72;;
37303;SDS011;23188;51.188;16.374;2022-10-04T22:59:19;8.88;;;7.35;;
37303;SDS011;23188;51.188;16.374;2022-10-04T23:03:27;9.33;;;6.87;;
37303;SDS011;23188;51.188;16.374;2022-10-04T23:07:32;12.95;;;7.08;;
37303;SDS011;23188;51.188;16.374;2022-10-04T23:11:33;10.23;;;6.28;;
37303;SDS011;23188;51.188;16.374;2022-10-04T23:15:34;9.08;;;6.85;;
37303;SDS011;23188;51.188;16.374;2022-10-04T23:19:35;9.05;;;6.42;;
37303;SDS011;23188;51.188;16.374;2022-10-04T23:23:36;15.45;;;7.95;;
37303;SDS011;23188;51.188;16.374;2022-10-04T23:27:37;10.72;;;7.33;;
37303;SDS011;23188;51.188;16.374;2022-10-04T23:31:38;8.55;;;6.60;;
37303;SDS011;23188;51.188;16.374;2022-10-04T23:35:40;10.72;;;6.17;;
37303;SDS011;23188;51.188;16.374;2022-10-04T23:39:41;12.95;;;8.15;;
37303;SDS011;23188;51.188;16.374;2022-10-04T23:43:43;11.28;;;6.80;;
37303;SDS011;23188;51.188;16.374;2022-10-04T23:47:50;9.73;;;6.45;;
37303;SDS011;23188;51.188;16.374;2022-10-04T23:51:55;10.75;;;6.30;;
